createdAt,value
2019-01-22T00:01:27.250Z,22.90
2019-01-22T00:03:58.453Z,22.90
2019-01-22T00:06:29.622Z,22.90
2019-01-22T00:09:00.923Z,22.90
2019-01-22T00:11:34.516Z,22.90
2019-01-22T00:14:05.698Z,22.90
2019-01-22T00:16:36.958Z,22.90
2019-01-22T00:19:08.231Z,22.90
2019-01-22T00:21:39.571Z,22.90
2019-01-22T00:24:10.837Z,22.80
2019-01-22T00:26:41.952Z,22.80
2019-01-22T00:29:13.071Z,22.80
2019-01-22T00:31:44.036Z,22.80
2019-01-22T00:34:15.200Z,22.80
2019-01-22T00:36:46.325Z,22.80
2019-01-22T00:39:17.365Z,22.80
2019-01-22T00:41:48.577Z,22.80
2019-01-22T00:44:19.583Z,22.80
2019-01-22T00:46:50.698Z,22.80
2019-01-22T00:49:21.637Z,22.80
2019-01-22T00:51:52.852Z,22.70
2019-01-22T00:54:24.227Z,22.80
2019-01-22T00:56:55.468Z,22.80
2019-01-22T00:59:26.640Z,22.70
2019-01-22T01:01:57.973Z,22.70
2019-01-22T01:04:29.023Z,22.70
2019-01-22T01:07:00.111Z,22.70
2019-01-22T01:09:31.074Z,22.80
2019-01-22T01:12:02.330Z,22.80
2019-01-22T01:14:33.463Z,22.70
2019-01-22T01:17:04.523Z,22.80
2019-01-22T01:19:35.470Z,22.70
2019-01-22T01:22:06.555Z,22.70
2019-01-22T01:24:37.634Z,22.70
2019-01-22T01:27:09.085Z,22.70
2019-01-22T01:29:40.333Z,22.70
2019-01-22T01:32:11.643Z,22.70
2019-01-22T01:34:42.792Z,22.70
2019-01-22T01:37:13.850Z,22.70
2019-01-22T01:39:45.423Z,22.70
2019-01-22T01:42:16.608Z,22.70
2019-01-22T01:44:47.724Z,22.70
2019-01-22T01:47:19.127Z,22.70
2019-01-22T01:49:50.215Z,22.60
2019-01-22T01:52:21.597Z,22.60
2019-01-22T01:54:52.839Z,22.60
2019-01-22T01:57:23.967Z,22.70
2019-01-22T01:59:55.247Z,22.70
2019-01-22T02:02:26.142Z,22.70
2019-01-22T02:04:57.415Z,22.70
2019-01-22T02:07:28.440Z,22.70
2019-01-22T02:10:00.427Z,22.70
2019-01-22T02:13:07.726Z,22.70
2019-01-22T02:16:04.275Z,22.70
2019-01-22T02:19:10.559Z,22.70
2019-01-22T02:22:52.563Z,22.70
2019-01-22T02:26:19.515Z,22.60
2019-01-22T02:29:50.879Z,22.60
2019-01-22T02:33:32.845Z,22.60
2019-01-22T02:37:01.019Z,22.60
2019-01-22T02:40:07.549Z,22.60
2019-01-22T02:43:48.419Z,22.60
2019-01-22T02:47:37.699Z,22.60
2019-01-22T02:51:33.419Z,22.60
2019-01-22T02:54:24.352Z,22.60
2019-01-22T02:57:59.591Z,22.60
2019-01-22T03:01:38.532Z,22.60
2019-01-22T03:05:06.191Z,22.50
2019-01-22T03:08:43.580Z,22.60
2019-01-22T03:11:43.717Z,22.60
2019-01-22T03:15:07.311Z,22.50
2019-01-22T03:18:17.772Z,22.50
2019-01-22T03:21:39.277Z,22.50
2019-01-22T03:24:58.854Z,22.50
2019-01-22T03:28:09.842Z,22.50
2019-01-22T03:31:33.525Z,22.50
2019-01-22T03:35:12.557Z,22.50
2019-01-22T03:38:38.037Z,22.50
2019-01-22T03:42:28.422Z,22.50
2019-01-22T03:45:39.258Z,22.50
2019-01-22T03:49:11.165Z,22.50
2019-01-22T03:53:00.708Z,22.50
2019-01-22T03:56:42.929Z,22.50
2019-01-22T03:59:14.160Z,22.50
2019-01-22T04:01:45.257Z,22.50
2019-01-22T04:04:16.509Z,22.50
2019-01-22T04:06:55.123Z,22.50
2019-01-22T04:09:54.145Z,22.50
2019-01-22T04:12:25.445Z,22.50
2019-01-22T04:14:56.743Z,22.50
2019-01-22T04:17:27.970Z,22.40
2019-01-22T04:19:59.313Z,22.40
2019-01-22T04:22:41.675Z,22.50
2019-01-22T04:25:46.618Z,22.50
2019-01-22T04:29:07.326Z,22.50
2019-01-22T04:32:14.704Z,22.50
2019-01-22T04:35:44.811Z,22.50
2019-01-22T04:38:50.839Z,22.50
2019-01-22T04:42:00.460Z,22.50
2019-01-22T04:45:54.656Z,22.50
2019-01-22T04:49:37.568Z,22.50
2019-01-22T04:53:17.732Z,22.50
2019-01-22T04:56:40.126Z,22.40
2019-01-22T05:00:05.721Z,22.40
2019-01-22T05:03:10.319Z,22.40
2019-01-22T05:06:23.907Z,22.40
2019-01-22T05:10:13.051Z,22.40
2019-01-22T05:13:35.920Z,22.40
2019-01-22T05:17:05.435Z,22.40
2019-01-22T05:20:37.597Z,22.40
2019-01-22T05:24:20.291Z,22.40
2019-01-22T05:27:41.788Z,22.40
2019-01-22T05:31:06.253Z,22.40
2019-01-22T05:34:11.010Z,22.40
2019-01-22T05:37:52.876Z,22.40
2019-01-22T05:41:24.050Z,22.40
2019-01-22T05:44:46.705Z,22.40
2019-01-22T05:48:21.944Z,22.30
2019-01-22T05:51:18.208Z,22.30
2019-01-22T05:54:47.416Z,22.40
2019-01-22T05:58:20.285Z,22.50
2019-01-22T06:01:16.602Z,22.80
2019-01-22T06:04:45.116Z,23.00
2019-01-22T06:08:34.068Z,23.20
2019-01-22T06:11:48.529Z,23.50
2019-01-22T06:14:59.309Z,23.80
2019-01-22T06:18:40.707Z,24.00
2019-01-22T06:22:10.408Z,24.10
2019-01-22T06:25:49.970Z,24.20
2019-01-22T06:29:22.160Z,24.30
2019-01-22T06:32:31.759Z,24.60
2019-01-22T06:35:48.476Z,24.90
2019-01-22T06:39:00.418Z,25.00
2019-01-22T06:43:11.108Z,24.90
2019-01-22T06:46:17.102Z,24.90
2019-01-22T06:49:42.479Z,24.90
2019-01-22T06:53:06.600Z,24.60
2019-01-22T06:56:25.958Z,24.30
2019-01-22T06:59:39.159Z,24.10
2019-01-22T07:03:04.076Z,23.90
2019-01-22T07:06:38.930Z,23.80
2019-01-22T07:10:37.400Z,23.70
2019-01-22T07:14:10.703Z,23.60
2019-01-22T07:17:46.884Z,23.50
2019-01-22T07:21:01.957Z,23.40
2019-01-22T07:23:54.619Z,23.30
2019-01-22T07:27:38.759Z,23.30
2019-01-22T07:30:58.756Z,23.30
2019-01-22T07:34:26.099Z,23.20
2019-01-22T07:37:55.937Z,23.20
2019-01-22T07:41:30.976Z,23.10
2019-01-22T07:45:08.095Z,23.10
2019-01-22T07:48:24.938Z,23.20
2019-01-22T07:51:53.331Z,23.10
2019-01-22T07:55:21.003Z,23.10
2019-01-22T07:58:59.273Z,23.10
2019-01-22T08:02:29.473Z,23.00
2019-01-22T08:05:43.678Z,23.00
2019-01-22T08:08:57.249Z,22.90
2019-01-22T08:12:02.667Z,22.90
2019-01-22T08:15:25.908Z,22.90
2019-01-22T08:19:10.194Z,22.80
2019-01-22T08:23:13.492Z,22.80
2019-01-22T08:26:30.081Z,22.80
2019-01-22T08:29:25.510Z,22.80
2019-01-22T08:32:43.715Z,22.80
2019-01-22T08:36:25.146Z,22.80
2019-01-22T08:40:03.991Z,22.80
2019-01-22T08:43:30.665Z,22.80
2019-01-22T08:47:16.526Z,22.80
2019-01-22T08:50:23.742Z,22.80
2019-01-22T08:53:46.907Z,22.70
2019-01-22T08:57:16.819Z,22.70
2019-01-22T09:00:42.018Z,22.70
2019-01-22T09:03:46.082Z,22.70
2019-01-22T09:07:34.603Z,22.70
2019-01-22T09:11:09.392Z,22.70
2019-01-22T09:14:31.619Z,22.70
2019-01-22T09:17:51.609Z,22.60
2019-01-22T09:21:06.510Z,22.60
2019-01-22T09:24:26.265Z,22.60
2019-01-22T09:28:08.363Z,22.60
2019-01-22T09:31:30.485Z,22.60
2019-01-22T09:35:18.630Z,22.60
2019-01-22T09:37:58.779Z,22.60
2019-01-22T09:40:30.341Z,22.60
2019-01-22T09:43:01.464Z,22.60
2019-01-22T09:45:32.722Z,22.60
2019-01-22T09:48:04.009Z,22.50
2019-01-22T09:50:35.253Z,22.60
2019-01-22T09:53:06.503Z,22.50
2019-01-22T09:55:37.862Z,22.50
2019-01-22T09:58:09.245Z,22.50
2019-01-22T10:00:40.883Z,22.50
2019-01-22T10:03:12.098Z,22.50
2019-01-22T10:05:43.440Z,22.50
2019-01-22T10:08:14.429Z,22.50
2019-01-22T10:10:45.539Z,22.50
2019-01-22T10:13:16.719Z,22.50
2019-01-22T10:15:47.772Z,22.50
2019-01-22T10:18:18.827Z,22.50
2019-01-22T10:20:50.128Z,22.50
2019-01-22T10:23:21.549Z,22.50
2019-01-22T10:25:52.656Z,22.50
2019-01-22T10:28:23.957Z,22.50
2019-01-22T10:30:54.921Z,22.50
2019-01-22T10:33:26.137Z,22.50
2019-01-22T10:35:57.342Z,22.50
2019-01-22T10:38:28.454Z,22.50
2019-01-22T10:40:59.701Z,22.50
2019-01-22T10:43:30.800Z,22.50
2019-01-22T10:46:02.040Z,22.50
2019-01-22T10:48:33.290Z,22.50
2019-01-22T10:51:04.280Z,22.50
2019-01-22T10:53:35.348Z,22.40
2019-01-22T10:56:09.039Z,22.40
2019-01-22T10:58:40.206Z,22.40
2019-01-22T11:01:11.580Z,22.40
2019-01-22T11:03:42.746Z,22.40
2019-01-22T11:06:13.878Z,22.40
2019-01-22T11:08:44.992Z,22.50
2019-01-22T11:11:16.289Z,22.50
2019-01-22T11:13:47.594Z,22.40
2019-01-22T11:16:18.817Z,22.50
2019-01-22T11:18:49.899Z,22.50
2019-01-22T11:21:20.880Z,22.50
2019-01-22T11:23:52.184Z,22.50
2019-01-22T11:26:23.354Z,22.50
2019-01-22T11:28:54.352Z,22.50
2019-01-22T11:31:25.551Z,22.50
2019-01-22T11:33:56.862Z,22.50
2019-01-22T11:36:27.820Z,22.40
2019-01-22T11:38:58.964Z,22.30
2019-01-22T11:41:30.041Z,22.40
2019-01-22T11:44:01.176Z,22.50
2019-01-22T11:46:32.435Z,22.50
2019-01-22T11:49:03.436Z,22.50
2019-01-22T11:51:34.250Z,22.50
2019-01-22T11:54:05.491Z,22.60
2019-01-22T11:56:36.568Z,22.50
2019-01-22T11:59:07.711Z,22.50
2019-01-22T12:01:38.797Z,22.50
2019-01-22T12:04:09.751Z,22.40
2019-01-22T12:06:40.761Z,22.40
2019-01-22T12:09:11.961Z,22.30
2019-01-22T12:11:43.195Z,22.30
2019-01-22T12:14:14.450Z,22.30
2019-01-22T12:16:45.460Z,22.30
2019-01-22T12:19:16.474Z,22.30
2019-01-22T12:21:48.217Z,22.30
2019-01-22T12:24:19.466Z,22.20
2019-01-22T12:26:50.609Z,22.20
2019-01-22T12:29:21.365Z,22.20
2019-01-22T12:31:52.461Z,22.30
2019-01-22T12:34:23.495Z,22.30
2019-01-22T12:36:54.556Z,22.30
2019-01-22T12:39:25.718Z,22.30
2019-01-22T12:41:56.679Z,22.30
2019-01-22T12:44:27.732Z,22.30
2019-01-22T12:46:58.697Z,22.30
2019-01-22T12:49:29.874Z,22.50
2019-01-22T12:52:00.977Z,22.60
2019-01-22T12:54:31.968Z,22.80
2019-01-22T12:57:03.161Z,22.90
2019-01-22T12:59:34.353Z,22.90
2019-01-22T13:02:05.350Z,22.90
2019-01-22T13:04:36.351Z,22.90
2019-01-22T13:07:07.372Z,22.80
2019-01-22T13:09:38.417Z,22.80
2019-01-22T13:12:09.451Z,22.70
2019-01-22T13:15:02.249Z,22.70
2019-01-22T13:17:34.601Z,22.60
2019-01-22T13:20:09.556Z,22.50
2019-01-22T13:22:40.705Z,22.50
2019-01-22T13:25:12.095Z,22.50
2019-01-22T13:27:43.296Z,22.40
2019-01-22T13:30:21.515Z,22.40
2019-01-22T13:32:52.649Z,22.40
2019-01-22T13:35:23.736Z,22.50
2019-01-22T13:37:54.699Z,22.50
2019-01-22T13:40:25.798Z,22.50
2019-01-22T13:42:56.754Z,22.50
2019-01-22T13:45:29.780Z,22.50
2019-01-22T13:48:01.647Z,22.50
2019-01-22T13:50:32.640Z,22.50
2019-01-22T13:53:03.799Z,22.50
2019-01-22T13:55:36.939Z,22.50
2019-01-22T13:58:08.072Z,22.60
2019-01-22T14:00:59.728Z,22.60
2019-01-22T14:03:30.865Z,22.60
2019-01-22T14:06:02.027Z,22.50
2019-01-22T14:08:33.117Z,22.50
2019-01-22T14:11:04.564Z,22.50
2019-01-22T14:13:35.992Z,22.50
2019-01-22T14:16:53.111Z,22.50
2019-01-22T14:19:24.205Z,22.50
2019-01-22T14:21:55.358Z,22.50
2019-01-22T14:24:26.651Z,22.50
2019-01-22T14:26:58.271Z,22.50
2019-01-22T14:29:29.221Z,22.50
2019-01-22T14:32:00.345Z,22.50
2019-01-22T14:34:31.951Z,22.50
2019-01-22T14:37:03.757Z,22.40
2019-01-22T14:39:35.072Z,22.50
2019-01-22T14:42:06.143Z,22.50
2019-01-22T14:44:42.049Z,22.50
2019-01-22T14:47:13.188Z,22.50
2019-01-22T14:49:48.615Z,22.50
2019-01-22T14:52:20.564Z,22.50
2019-01-22T14:54:51.644Z,22.40
2019-01-22T14:57:23.289Z,22.50
2019-01-22T14:59:54.318Z,22.50
2019-01-22T15:02:26.195Z,22.50
2019-01-22T15:04:57.404Z,22.50
2019-01-22T15:07:28.869Z,22.50
2019-01-22T15:09:59.802Z,22.40
2019-01-22T15:12:30.860Z,22.40
2019-01-22T15:15:04.570Z,22.40
2019-01-22T15:17:35.845Z,22.40
2019-01-22T15:20:11.686Z,22.40
2019-01-22T15:22:43.070Z,22.40
2019-01-22T15:25:14.567Z,22.40
2019-01-22T15:27:45.880Z,22.40
2019-01-22T15:30:29.341Z,22.40
2019-01-22T15:33:14.699Z,22.40
2019-01-22T15:35:45.917Z,22.40
2019-01-22T15:38:17.095Z,22.40
2019-01-22T15:40:48.544Z,22.40
2019-01-22T15:43:27.112Z,22.40
2019-01-22T15:45:58.594Z,22.40
2019-01-22T15:48:29.806Z,22.40
2019-01-22T15:51:02.208Z,22.40
2019-01-22T15:53:33.579Z,22.40
2019-01-22T15:56:04.738Z,22.40
2019-01-22T15:58:35.872Z,22.40
2019-01-22T16:01:08.341Z,22.40
2019-01-22T16:03:40.697Z,22.40
2019-01-22T16:06:14.596Z,22.40
2019-01-22T16:08:47.080Z,22.40
2019-01-22T16:11:18.681Z,22.30
2019-01-22T16:13:50.910Z,22.40
2019-01-22T16:16:24.764Z,22.40
2019-01-22T16:18:56.254Z,22.30
2019-01-22T16:21:28.276Z,22.40
2019-01-22T16:23:59.234Z,22.40
2019-01-22T16:26:30.391Z,22.40
2019-01-22T16:29:01.687Z,22.40
2019-01-22T16:31:32.807Z,22.40
2019-01-22T16:34:03.884Z,22.40
2019-01-22T16:36:35.140Z,22.40
2019-01-22T16:39:08.083Z,22.30
2019-01-22T16:41:39.069Z,22.30
2019-01-22T16:44:10.188Z,22.40
2019-01-22T16:46:41.273Z,22.30
2019-01-22T16:49:12.377Z,22.40
2019-01-22T16:51:43.464Z,22.30
2019-01-22T16:54:14.447Z,22.40
2019-01-22T16:56:45.626Z,22.40
2019-01-22T16:59:16.728Z,22.40
2019-01-22T17:01:47.943Z,22.40
2019-01-22T17:04:18.952Z,22.40
2019-01-22T17:06:50.260Z,22.40
2019-01-22T17:09:25.313Z,22.40
2019-01-22T17:11:54.055Z,22.40
2019-01-22T17:14:25.141Z,22.40
2019-01-22T17:16:56.152Z,22.50
2019-01-22T17:19:27.270Z,22.40
2019-01-22T17:21:58.355Z,22.50
2019-01-22T17:24:29.383Z,22.50
2019-01-22T17:27:18.599Z,22.50
2019-01-22T17:29:49.666Z,22.40
2019-01-22T17:32:36.575Z,22.50
2019-01-22T17:35:08.882Z,22.50
2019-01-22T17:37:40.037Z,22.40
2019-01-22T17:40:16.355Z,22.40
2019-01-22T17:42:45.633Z,22.40
2019-01-22T17:45:16.721Z,22.50
2019-01-22T17:47:47.606Z,22.50
2019-01-22T17:50:18.662Z,22.50
2019-01-22T17:52:49.738Z,22.50
2019-01-22T17:55:21.049Z,22.50
2019-01-22T17:57:52.183Z,22.50
2019-01-22T18:00:24.112Z,22.50
2019-01-22T18:02:55.329Z,22.60
2019-01-22T18:05:26.441Z,22.60
2019-01-22T18:07:57.487Z,22.60
2019-01-22T18:10:28.843Z,22.60
2019-01-22T18:12:59.968Z,22.60
2019-01-22T18:15:31.118Z,22.60
2019-01-22T18:18:02.358Z,22.60
2019-01-22T18:20:33.671Z,22.60
2019-01-22T18:23:04.859Z,22.60
2019-01-22T18:25:36.039Z,22.70
2019-01-22T18:28:07.444Z,22.70
2019-01-22T18:30:38.670Z,22.70
2019-01-22T18:33:09.888Z,22.70
2019-01-22T18:35:44.715Z,22.70
2019-01-22T18:38:17.731Z,22.70
2019-01-22T18:40:48.750Z,22.70
2019-01-22T18:43:20.129Z,22.80
2019-01-22T18:45:54.476Z,22.80
2019-01-22T18:48:26.051Z,22.80
2019-01-22T18:50:57.048Z,22.70
2019-01-22T18:53:29.582Z,22.70
2019-01-22T18:56:04.507Z,22.70
2019-01-22T18:58:36.013Z,22.70
2019-01-22T19:01:07.830Z,22.70
2019-01-22T19:03:40.763Z,22.60
2019-01-22T19:06:14.997Z,22.60
2019-01-22T19:08:47.590Z,22.60
2019-01-22T19:11:18.966Z,22.60
2019-01-22T19:13:51.261Z,22.60
2019-01-22T19:16:23.245Z,22.60
2019-01-22T19:18:54.552Z,22.60
2019-01-22T19:21:26.430Z,22.60
2019-01-22T19:24:00.241Z,22.60
2019-01-22T19:26:32.015Z,22.60
2019-01-22T19:29:04.075Z,22.60
2019-01-22T19:31:35.761Z,22.60
2019-01-22T19:34:09.348Z,22.50
2019-01-22T19:36:42.792Z,22.60
2019-01-22T19:39:14.344Z,22.60
2019-01-22T19:42:08.556Z,22.60
2019-01-22T19:44:42.175Z,22.70
2019-01-22T19:47:16.697Z,22.70
2019-01-22T19:49:48.280Z,22.80
2019-01-22T19:52:40.897Z,22.70
2019-01-22T19:55:14.630Z,22.80
2019-01-22T19:57:48.369Z,22.70
2019-01-22T20:00:24.642Z,22.70
2019-01-22T20:02:55.719Z,22.70
2019-01-22T20:05:27.046Z,22.70
2019-01-22T20:07:58.352Z,22.70
2019-01-22T20:10:29.439Z,22.70
2019-01-22T20:13:00.616Z,22.60
2019-01-22T20:15:31.826Z,22.50
2019-01-22T20:18:02.927Z,22.50
2019-01-22T20:20:34.112Z,22.50
2019-01-22T20:23:06.958Z,22.50
2019-01-22T20:25:38.070Z,22.50
2019-01-22T20:28:09.231Z,22.50
2019-01-22T20:30:41.395Z,22.50
2019-01-22T20:33:12.408Z,22.50
2019-01-22T20:35:43.694Z,22.40
2019-01-22T20:38:14.941Z,22.40
2019-01-22T20:40:46.167Z,22.50
2019-01-22T20:43:17.341Z,22.40
2019-01-22T20:45:48.419Z,22.40
2019-01-22T20:48:19.591Z,22.40
2019-01-22T20:50:50.707Z,22.50
2019-01-22T20:53:22.016Z,22.50
2019-01-22T20:55:53.228Z,22.50
2019-01-22T20:58:24.593Z,22.40
2019-01-22T21:00:55.697Z,22.40
2019-01-22T21:03:26.702Z,22.40
2019-01-22T21:05:57.780Z,22.30
2019-01-22T21:08:28.838Z,22.30
2019-01-22T21:11:00.106Z,22.30
2019-01-22T21:13:31.125Z,22.30
2019-01-22T21:16:02.278Z,22.30
2019-01-22T21:18:33.510Z,22.30
2019-01-22T21:21:04.424Z,22.30
2019-01-22T21:23:35.647Z,22.30
2019-01-22T21:26:06.649Z,22.30
2019-01-22T21:28:37.874Z,22.30
2019-01-22T21:31:09.009Z,22.30
2019-01-22T21:33:40.196Z,22.40
2019-01-22T21:36:11.238Z,22.40
2019-01-22T21:38:42.409Z,22.30
2019-01-22T21:41:13.440Z,22.30
2019-01-22T21:43:44.571Z,22.30
2019-01-22T21:46:15.787Z,22.30
2019-01-22T21:48:47.182Z,22.30
2019-01-22T21:51:18.326Z,22.30
2019-01-22T21:53:49.680Z,22.30
2019-01-22T21:56:20.921Z,22.30
2019-01-22T21:58:52.066Z,22.30
2019-01-22T22:01:23.509Z,22.30
2019-01-22T22:03:54.731Z,22.30
2019-01-22T22:06:25.884Z,22.30
2019-01-22T22:08:57.090Z,22.30
2019-01-22T22:11:28.205Z,22.40
2019-01-22T22:13:59.623Z,22.30
2019-01-22T22:16:30.763Z,22.30
2019-01-22T22:19:01.983Z,22.30
2019-01-22T22:21:33.178Z,22.30
2019-01-22T22:24:04.545Z,22.30
2019-01-22T22:26:36.001Z,22.30
2019-01-22T22:29:07.346Z,22.30
2019-01-22T22:31:38.499Z,22.30
2019-01-22T22:34:09.660Z,22.40
2019-01-22T22:36:40.963Z,22.40
2019-01-22T22:39:12.037Z,22.30
2019-01-22T22:41:43.392Z,22.30
2019-01-22T22:44:14.486Z,22.30
2019-01-22T22:46:45.657Z,22.30
2019-01-22T22:49:16.831Z,22.30
2019-01-22T22:51:47.755Z,22.30
2019-01-22T22:54:18.879Z,22.30
2019-01-22T22:56:50.174Z,22.20
2019-01-22T22:59:21.268Z,22.20
2019-01-22T23:01:52.439Z,22.30
2019-01-22T23:04:25.152Z,22.30
2019-01-22T23:06:56.431Z,22.30
2019-01-22T23:09:27.790Z,22.30
2019-01-22T23:11:59.119Z,22.30
2019-01-22T23:14:30.339Z,22.30
2019-01-22T23:17:01.608Z,22.30
2019-01-22T23:19:32.978Z,22.30
2019-01-22T23:22:04.117Z,22.30
2019-01-22T23:24:35.448Z,22.30
2019-01-22T23:27:06.664Z,22.30
2019-01-22T23:29:37.828Z,22.20
2019-01-22T23:32:09.092Z,22.20
2019-01-22T23:34:40.320Z,22.20
2019-01-22T23:37:11.331Z,22.20
2019-01-22T23:39:42.349Z,22.20
2019-01-22T23:42:13.554Z,22.20
2019-01-22T23:44:44.690Z,22.20
2019-01-22T23:47:15.954Z,22.20
2019-01-22T23:49:47.153Z,22.20
2019-01-22T23:52:18.252Z,22.20
2019-01-22T23:54:49.440Z,22.20
2019-01-22T23:57:20.760Z,22.20
2019-01-22T23:59:53.051Z,22.20
